Time;durP1;ratioP1;P1;durP2;ratioP2;P2;SDS_P1;SDS_P2;PMS_P1;PMS_P2;Temp;Humidity;BMP_temperature;BMP_pressure;BME280_temperature;BME280_humidity;BME280_pressure;Samples;Min_cycle;Max_cycle;Signal;HPM_P1;HPM_P2
2023/01/31 00:00:54;;;;;;;26.08;4.10;;;;;;;11.67;95.52;102281.72;5054587;28;20076;-49
2023/01/31 00:03:19;;;;;;;26.27;5.07;;;;;;;11.95;94.17;102284.03;5057024;28;20038;-49
2023/01/31 00:05:45;;;;;;;24.17;5.80;;;;;;;11.77;94.85;102290.44;5059918;28;20056;-52
2023/01/31 00:08:11;;;;;;;28.87;5.17;;;;;;;11.73;95.48;102281.88;5063903;28;20514;-53
2023/01/31 00:10:37;;;;;;;27.40;5.03;;;;;;;12.21;93.64;102281.19;5059461;28;20049;-51
2023/01/31 00:13:02;;;;;;;21.40;2.83;;;;;;;12.14;93.10;102285.56;5060123;28;20041;-49
2023/01/31 00:15:28;;;;;;;18.95;4.90;;;;;;;12.25;91.07;102295.13;5061223;28;20041;-50
2023/01/31 00:17:54;;;;;;;24.03;4.83;;;;;;;12.01;92.22;102294.16;5063934;28;20068;-50
2023/01/31 00:20:20;;;;;;;25.83;4.20;;;;;;;11.87;94.70;102284.88;5056889;28;20037;-50
2023/01/31 00:22:46;;;;;;;18.25;4.55;;;;;;;11.65;96.86;102281.03;5059197;28;20037;-49
2023/01/31 00:25:12;;;;;;;15.88;4.00;;;;;;;11.48;98.90;102284.56;5061000;28;20037;-50
2023/01/31 00:27:37;;;;;;;24.23;3.83;;;;;;;11.54;98.96;102293.78;5058793;28;20109;-50
2023/01/31 00:30:04;;;;;;;29.02;5.25;;;;;;;11.50;97.47;102291.59;5058548;28;20042;-49
2023/01/31 00:32:29;;;;;;;25.13;4.18;;;;;;;11.83;97.54;102286.22;5058963;28;20029;-53
2023/01/31 00:34:55;;;;;;;24.60;4.13;;;;;;;11.94;95.74;102269.81;5059284;28;20057;-54
2023/01/31 00:37:21;;;;;;;18.17;3.33;;;;;;;11.99;95.83;102278.19;5062314;28;20033;-57
2023/01/31 00:39:47;;;;;;;26.02;5.03;;;;;;;11.94;95.31;102271.66;5062357;28;20029;-54
2023/01/31 00:42:15;;;;;;;17.42;3.35;;;;;;;11.56;96.52;102274.84;5055969;28;20056;-53
2023/01/31 00:44:41;;;;;;;19.43;3.70;;;;;;;11.39;97.18;102274.00;5058125;28;20030;-53
2023/01/31 00:47:06;;;;;;;18.50;3.90;;;;;;;11.47;99.43;102268.63;5061271;28;20034;-52
2023/01/31 00:49:32;;;;;;;19.43;3.83;;;;;;;11.39;100.00;102257.94;5059195;28;20432;-50
2023/01/31 00:51:57;;;;;;;17.50;3.00;;;;;;;10.72;100.00;102256.91;5058430;28;20065;-50
2023/01/31 00:54:23;;;;;;;18.33;3.50;;;;;;;11.79;100.00;102253.59;5057243;28;20060;-49
2023/01/31 00:56:49;;;;;;;16.85;3.38;;;;;;;10.96;100.00;102240.09;5057139;28;20061;-52
2023/01/31 00:59:15;;;;;;;15.43;3.45;;;;;;;11.25;100.00;102244.16;5046143;28;20040;-50
2023/01/31 01:01:40;;;;;;;27.23;5.03;;;;;;;10.72;100.00;102240.84;5052935;28;20033;-53
2023/01/31 01:04:06;;;;;;;16.87;3.50;;;;;;;11.44;100.00;102242.19;5053492;28;20274;-50
2023/01/31 01:06:32;;;;;;;29.05;3.80;;;;;;;10.38;100.00;102244.38;5058193;28;20037;-54
2023/01/31 01:08:58;;;;;;;19.38;3.55;;;;;;;10.64;100.00;102232.81;5057684;28;20064;-52
2023/01/31 01:11:29;;;;;;;11.88;3.03;;;;;;;10.53;100.00;102224.09;5059619;28;20033;-49
2023/01/31 01:13:57;;;;;;;19.77;3.10;;;;;;;10.82;100.00;102225.53;5052186;28;20084;-51
2023/01/31 01:16:25;;;;;;;22.55;3.08;;;;;;;10.55;100.00;102231.94;5059124;28;20026;-52
2023/01/31 01:18:53;;;;;;;16.30;3.58;;;;;;;10.40;100.00;102226.34;5058735;28;20077;-51
2023/01/31 01:21:23;;;;;;;25.58;4.18;;;;;;;10.70;100.00;102222.31;5057663;28;20089;-51
2023/01/31 01:23:49;;;;;;;29.67;4.50;;;;;;;11.05;100.00;102230.25;5059425;28;20047;-55
2023/01/31 01:26:23;;;;;;;23.80;3.22;;;;;;;11.58;100.00;102230.81;5060184;28;20029;-52
2023/01/31 01:28:50;;;;;;;16.85;3.67;;;;;;;11.26;100.00;102226.28;5057522;28;20040;-52
2023/01/31 01:31:17;;;;;;;27.70;4.70;;;;;;;10.75;100.00;102222.66;5051204;28;20037;-52
2023/01/31 01:33:44;;;;;;;24.80;4.20;;;;;;;11.06;100.00;102215.88;5056609;28;20108;-54
2023/01/31 01:36:12;;;;;;;16.38;4.15;;;;;;;11.14;100.00;102218.56;5055063;28;21290;-52
2023/01/31 01:38:39;;;;;;;16.55;3.85;;;;;;;11.04;100.00;102218.69;5057792;28;20037;-52
2023/01/31 01:41:05;;;;;;;25.27;4.05;;;;;;;11.17;100.00;102220.06;5058081;28;20033;-50
2023/01/31 01:43:44;;;;;;;24.90;3.85;;;;;;;10.82;100.00;102214.81;5053686;28;20065;-51
2023/01/31 01:46:14;;;;;;;25.27;3.50;;;;;;;11.33;100.00;102217.41;5058487;28;20045;-50
2023/01/31 01:48:42;;;;;;;27.33;3.53;;;;;;;11.24;100.00;102213.03;5054937;28;20025;-53
2023/01/31 01:51:08;;;;;;;19.63;3.50;;;;;;;10.95;100.00;102205.47;5062862;28;20045;-51
2023/01/31 01:53:38;;;;;;;24.15;3.63;;;;;;;11.58;100.00;102219.25;5058598;28;20037;-51
2023/01/31 01:56:10;;;;;;;31.52;4.38;;;;;;;11.03;100.00;102224.22;5054264;28;20048;-54
2023/01/31 01:58:41;;;;;;;28.08;3.33;;;;;;;11.53;100.00;102233.13;5058256;28;20036;-50
2023/01/31 02:01:07;;;;;;;20.85;3.95;;;;;;;11.66;100.00;102231.81;5059976;28;20105;-50
2023/01/31 02:03:34;;;;;;;30.88;4.25;;;;;;;11.10;100.00;102221.75;5058566;28;20047;-52
2023/01/31 02:06:05;;;;;;;22.88;3.58;;;;;;;11.05;100.00;102223.06;5055870;28;20504;-50
2023/01/31 02:08:34;;;;;;;25.48;4.00;;;;;;;11.07;100.00;102222.91;5064454;28;20052;-50
2023/01/31 02:11:04;;;;;;;25.20;4.45;;;;;;;11.57;100.00;102228.28;5060565;28;20044;-50
2023/01/31 02:13:30;;;;;;;25.33;3.88;;;;;;;10.92;100.00;102214.69;5061563;28;20037;-51
2023/01/31 02:15:57;;;;;;;25.43;5.13;;;;;;;10.52;100.00;102225.09;5058112;28;20037;-49
2023/01/31 02:18:24;;;;;;;27.50;4.53;;;;;;;10.86;100.00;102226.03;5065103;28;20278;-50
2023/01/31 02:21:18;;;;;;;21.90;3.92;;;;;;;10.91;100.00;102234.41;5059036;28;20038;-54
2023/01/31 02:24:13;;;;;;;20.48;4.35;;;;;;;11.31;100.00;102227.47;5060240;28;20033;-50
2023/01/31 02:27:03;;;;;;;25.95;5.38;;;;;;;11.04;100.00;102225.91;5058549;28;20029;-51
2023/01/31 02:29:41;;;;;;;20.45;5.13;;;;;;;11.21;100.00;102229.44;5061226;28;20044;-50
2023/01/31 02:32:30;;;;;;;21.23;4.82;;;;;;;11.39;100.00;102223.09;5059514;28;20032;-50
2023/01/31 02:35:13;;;;;;;27.52;5.50;;;;;;;11.54;100.00;102225.94;5061555;28;20109;-50
2023/01/31 02:37:54;;;;;;;21.38;4.20;;;;;;;11.43;100.00;102227.13;5062506;28;20037;-53
2023/01/31 02:40:57;;;;;;;26.23;4.32;;;;;;;11.73;100.00;102216.72;5056070;28;20033;-51
2023/01/31 02:46:58;;;;;;;28.90;5.05;;;;;;;11.54;100.00;102209.88;5056260;28;20029;-49
2023/01/31 02:49:34;;;;;;;33.72;5.57;;;;;;;11.73;100.00;102214.88;5056834;28;20101;-49
2023/01/31 02:52:33;;;;;;;30.83;5.95;;;;;;;11.55;100.00;102215.09;5057493;28;20067;-55
2023/01/31 02:58:04;;;;;;;25.65;5.88;;;;;;;12.02;100.00;102204.66;5058034;28;20044;-51
2023/01/31 03:00:34;;;;;;;29.85;6.05;;;;;;;11.88;100.00;102211.53;5057646;28;20037;-49
2023/01/31 03:02:59;;;;;;;22.15;5.82;;;;;;;11.66;100.00;102199.66;5061210;28;20041;-48
2023/01/31 03:05:25;;;;;;;32.15;6.13;;;;;;;11.70;100.00;102200.97;5056222;28;20064;-50
2023/01/31 03:07:55;;;;;;;30.45;6.45;;;;;;;12.02;100.00;102199.28;5040174;28;20025;-51
2023/01/31 03:10:37;;;;;;;21.65;5.70;;;;;;;11.50;100.00;102201.31;5054928;28;20045;-49
2023/01/31 03:13:25;;;;;;;28.58;6.20;;;;;;;12.94;100.00;102192.50;5056823;28;20522;-50
2023/01/31 03:19:15;;;;;;;31.85;7.03;;;;;;;12.32;100.00;102178.06;5055731;28;20038;-55
2023/01/31 03:21:51;;;;;;;31.02;6.93;;;;;;;12.47;100.00;102186.22;5056631;28;20037;-51
2023/01/31 03:24:18;;;;;;;28.70;7.53;;;;;;;12.45;100.00;102194.41;5056991;28;20051;-49
2023/01/31 03:26:45;;;;;;;45.15;8.60;;;;;;;12.15;100.00;102190.72;5057368;28;20637;-51
2023/01/31 03:29:15;;;;;;;26.38;7.97;;;;;;;11.88;100.00;102187.41;5056898;28;20033;-50
2023/01/31 03:31:51;;;;;;;27.90;8.27;;;;;;;12.29;100.00;102179.25;5058649;28;20778;-51
2023/01/31 03:34:18;;;;;;;27.75;7.10;;;;;;;12.11;100.00;102186.69;5056540;28;20037;-52
2023/01/31 03:36:55;;;;;;;39.45;8.38;;;;;;;12.17;100.00;102176.09;5057342;28;20088;-54
2023/01/31 03:39:41;;;;;;;35.88;7.50;;;;;;;11.86;100.00;102194.75;5060943;28;20076;-52
2023/01/31 03:42:34;;;;;;;28.42;7.40;;;;;;;12.14;100.00;102167.59;5058516;28;20040;-51
2023/01/31 03:45:10;;;;;;;33.05;8.68;;;;;;;11.69;100.00;102177.88;5065944;28;20037;-50
2023/01/31 03:47:39;;;;;;;34.15;7.72;;;;;;;11.62;100.00;102164.31;5057626;28;20116;-52
2023/01/31 03:50:12;;;;;;;25.45;8.30;;;;;;;11.89;100.00;102171.13;5061548;28;20060;-52
2023/01/31 03:52:48;;;;;;;27.80;7.70;;;;;;;11.90;100.00;102170.13;5059220;28;20060;-51
2023/01/31 03:55:56;;;;;;;38.45;7.93;;;;;;;12.03;100.00;102168.78;5057071;28;20048;-52
2023/01/31 03:58:27;;;;;;;33.22;7.90;;;;;;;11.73;100.00;102158.59;5036336;28;20037;-49
2023/01/31 04:00:57;;;;;;;32.17;8.25;;;;;;;11.88;100.00;102163.28;5057423;28;20033;-51
2023/01/31 04:03:40;;;;;;;36.45;9.15;;;;;;;12.06;100.00;102160.41;5042374;28;20032;-48
2023/01/31 04:06:10;;;;;;;36.38;8.63;;;;;;;12.04;100.00;102139.09;5059889;28;20037;-52
2023/01/31 04:08:36;;;;;;;47.83;9.00;;;;;;;12.12;100.00;102148.16;5055431;28;20021;-55
2023/01/31 04:11:09;;;;;;;43.45;11.10;;;;;;;12.42;100.00;102138.44;5071217;28;20037;-49
2023/01/31 04:13:35;;;;;;;37.53;8.63;;;;;;;12.45;100.00;102139.94;5059663;28;20113;-53
2023/01/31 04:16:02;;;;;;;33.45;8.50;;;;;;;12.06;100.00;102147.00;5056479;28;20040;-54
2023/01/31 04:18:28;;;;;;;30.08;8.20;;;;;;;11.91;100.00;102166.44;5056584;28;20105;-51
2023/01/31 04:20:53;;;;;;;32.57;8.10;;;;;;;12.66;100.00;102147.34;5059471;28;20033;-51
2023/01/31 04:23:18;;;;;;;34.90;8.83;;;;;;;12.26;100.00;102141.22;5058858;28;20270;-51
2023/01/31 04:25:45;;;;;;;46.58;11.77;;;;;;;12.61;100.00;102147.06;5053551;28;20029;-55
2023/01/31 04:28:10;;;;;;;34.60;8.85;;;;;;;12.89;100.00;102142.03;5054239;28;20053;-51
2023/01/31 04:30:36;;;;;;;48.88;8.98;;;;;;;11.85;100.00;102150.19;5054403;28;20084;-52
2023/01/31 04:33:02;;;;;;;38.15;9.20;;;;;;;11.81;100.00;102138.16;5058162;28;20037;-52
2023/01/31 04:35:28;;;;;;;39.25;10.07;;;;;;;11.60;100.00;102153.78;5055845;28;20079;-50
2023/01/31 04:37:54;;;;;;;43.87;9.40;;;;;;;11.84;100.00;102138.66;5052958;28;20033;-54
2023/01/31 04:40:20;;;;;;;39.53;9.80;;;;;;;11.97;100.00;102131.91;5053879;28;20271;-54
2023/01/31 04:42:46;;;;;;;35.85;10.43;;;;;;;11.81;100.00;102130.97;5053597;28;20036;-53
2023/01/31 04:45:11;;;;;;;34.03;9.17;;;;;;;12.03;100.00;102120.53;5056383;28;20029;-52
2023/01/31 04:47:37;;;;;;;43.30;10.80;;;;;;;12.01;100.00;102118.00;5058019;28;21244;-52
2023/01/31 04:50:03;;;;;;;41.67;10.33;;;;;;;12.07;100.00;102124.53;5058029;28;20036;-53
2023/01/31 04:52:29;;;;;;;34.65;9.90;;;;;;;11.96;100.00;102112.31;5055663;28;20029;-52
2023/01/31 04:54:55;;;;;;;29.63;8.37;;;;;;;12.02;100.00;102113.50;5057997;28;20060;-52
2023/01/31 04:57:20;;;;;;;41.30;10.50;;;;;;;11.66;100.00;102119.25;5056172;28;20037;-52
2023/01/31 04:59:46;;;;;;;35.10;9.93;;;;;;;12.38;100.00;102109.47;5056541;28;20061;-52
2023/01/31 05:02:13;;;;;;;36.63;10.95;;;;;;;12.41;100.00;102107.25;5058345;28;20270;-53
2023/01/31 05:04:39;;;;;;;32.22;9.98;;;;;;;11.85;100.00;102110.84;5056464;28;20032;-52
2023/01/31 05:07:05;;;;;;;33.60;10.13;;;;;;;11.75;100.00;102108.34;5061586;28;20093;-53
2023/01/31 05:09:30;;;;;;;45.47;11.20;;;;;;;12.22;100.00;102097.81;5058701;28;20093;-50
2023/01/31 05:11:56;;;;;;;31.03;9.47;;;;;;;11.84;100.00;102095.75;5057540;28;20041;-51
2023/01/31 05:14:22;;;;;;;36.77;10.77;;;;;;;11.93;100.00;102098.41;5053661;28;20053;-51
2023/01/31 05:16:47;;;;;;;41.30;12.23;;;;;;;12.11;100.00;102084.78;5055273;28;20298;-52
2023/01/31 05:19:14;;;;;;;32.60;10.03;;;;;;;11.99;100.00;102095.03;5058197;28;20040;-51
2023/01/31 05:21:57;;;;;;;52.78;10.88;;;;;;;12.19;100.00;102100.84;5053772;28;20033;-54
2023/01/31 05:24:24;;;;;;;50.70;11.27;;;;;;;11.94;100.00;102113.47;5058402;28;20075;-49
2023/01/31 05:26:52;;;;;;;39.75;10.43;;;;;;;11.61;100.00;102107.22;5053413;28;20095;-50
2023/01/31 05:29:18;;;;;;;35.92;9.88;;;;;;;11.66;100.00;102085.28;5053484;28;20081;-51
2023/01/31 05:31:44;;;;;;;44.53;10.95;;;;;;;11.77;100.00;102084.06;5055047;28;20073;-53
2023/01/31 05:34:13;;;;;;;45.93;11.10;;;;;;;11.58;100.00;102098.69;5056531;28;20056;-54
2023/01/31 05:36:41;;;;;;;32.85;8.75;;;;;;;12.27;100.00;102078.53;5060833;28;20056;-50
2023/01/31 05:39:06;;;;;;;31.33;10.32;;;;;;;12.03;100.00;102080.31;5057299;28;20042;-54
2023/01/31 05:41:32;;;;;;;42.75;9.57;;;;;;;11.70;100.00;102099.16;5056646;28;20064;-54
2023/01/31 05:43:58;;;;;;;35.13;9.83;;;;;;;11.97;100.00;102083.63;5060058;28;20041;-52
2023/01/31 05:46:23;;;;;;;30.67;10.82;;;;;;;11.72;100.00;102087.25;5060886;28;20029;-51
2023/01/31 05:48:49;;;;;;;38.47;9.00;;;;;;;12.28;100.00;102083.69;5062216;28;20040;-52
2023/01/31 05:51:14;;;;;;;35.87;10.07;;;;;;;12.71;100.00;102083.25;5061919;28;20021;-49
2023/01/31 05:53:40;;;;;;;29.67;9.37;;;;;;;12.56;100.00;102085.03;5063647;28;20071;-51
2023/01/31 05:56:05;;;;;;;34.97;9.80;;;;;;;11.91;100.00;102090.56;5064375;28;20278;-53
2023/01/31 05:58:32;;;;;;;38.70;9.55;;;;;;;12.15;100.00;102092.31;5063809;28;20059;-53
2023/01/31 06:00:57;;;;;;;33.57;9.50;;;;;;;12.12;100.00;102097.19;5056863;28;20045;-52
2023/01/31 06:03:23;;;;;;;35.33;9.43;;;;;;;11.99;100.00;102086.97;5057842;28;20029;-52
2023/01/31 06:05:48;;;;;;;40.10;9.80;;;;;;;12.02;100.00;102079.47;5063140;28;20041;-51
2023/01/31 06:08:14;;;;;;;36.47;10.18;;;;;;;12.25;100.00;102078.69;5058909;28;20088;-53
2023/01/31 06:10:39;;;;;;;39.83;12.10;;;;;;;12.21;100.00;102068.47;5059968;28;20101;-53
2023/01/31 06:13:06;;;;;;;34.40;9.63;;;;;;;12.23;100.00;102072.66;5066874;28;20035;-54
2023/01/31 06:15:32;;;;;;;43.08;11.80;;;;;;;12.88;100.00;102085.81;5059851;28;20025;-52
2023/01/31 06:17:58;;;;;;;;;;;;;;;12.17;100.00;102082.22;5055501;28;20047;-56
2023/01/31 06:20:24;;;;;;;24.87;8.63;;;;;;;12.19;100.00;102072.16;5055148;28;19940;-49
2023/01/31 06:22:50;;;;;;;31.83;10.60;;;;;;;11.94;100.00;102068.75;5060334;28;20067;-53
2023/01/31 06:25:16;;;;;;;42.78;11.43;;;;;;;13.19;100.00;102066.91;5063669;28;20041;-50
2023/01/31 06:27:42;;;;;;;37.17;11.75;;;;;;;12.32;100.00;102062.72;5058126;28;20029;-54
2023/01/31 06:30:09;;;;;;;39.90;11.57;;;;;;;12.60;100.00;102056.81;5060101;28;20056;-51
2023/01/31 06:32:35;;;;;;;33.08;9.60;;;;;;;12.03;100.00;102035.56;5059353;28;20056;-54
2023/01/31 06:35:00;;;;;;;30.77;9.47;;;;;;;12.37;100.00;102040.75;5058809;28;20045;-53
2023/01/31 06:37:25;;;;;;;37.45;11.38;;;;;;;12.35;100.00;102043.59;5061769;28;20038;-53
2023/01/31 06:39:52;;;;;;;39.63;11.77;;;;;;;12.11;100.00;102052.59;5060303;28;20033;-53
2023/01/31 06:42:17;;;;;;;45.65;12.07;;;;;;;12.84;100.00;102053.13;5062808;28;20382;-53
2023/01/31 06:44:42;;;;;;;30.47;11.97;;;;;;;11.99;100.00;102057.47;5062459;28;20045;-54
2023/01/31 06:47:08;;;;;;;35.90;12.13;;;;;;;12.18;100.00;102050.91;5062377;28;20085;-53
2023/01/31 06:49:33;;;;;;;44.33;11.13;;;;;;;11.77;100.00;102046.56;5057361;28;20048;-51
2023/01/31 06:51:58;;;;;;;36.83;11.17;;;;;;;12.07;100.00;102040.56;5060686;28;20064;-53
2023/01/31 06:54:24;;;;;;;42.03;11.17;;;;;;;12.80;100.00;102045.59;5056735;28;20342;-53
2023/01/31 06:56:49;;;;;;;44.90;11.47;;;;;;;12.33;100.00;102034.88;5059246;28;20033;-52
2023/01/31 06:59:15;;;;;;;35.10;10.77;;;;;;;11.90;100.00;102021.88;5059379;28;20033;-52
2023/01/31 07:01:41;;;;;;;40.53;11.13;;;;;;;12.11;100.00;102020.41;5058333;28;20041;-54
2023/01/31 07:04:06;;;;;;;36.27;10.63;;;;;;;12.30;100.00;102019.16;5061647;28;20282;-52
2023/01/31 07:06:32;;;;;;;35.20;10.50;;;;;;;12.14;100.00;102020.09;5058598;28;20044;-53
2023/01/31 07:08:57;;;;;;;26.23;10.10;;;;;;;12.12;100.00;102022.94;5063790;28;20056;-50
2023/01/31 07:11:22;;;;;;;37.80;9.77;;;;;;;12.02;100.00;102011.63;5063261;28;20293;-52
2023/01/31 07:13:49;;;;;;;38.60;10.43;;;;;;;11.79;100.00;102004.31;5057847;28;20041;-52
2023/01/31 07:16:15;;;;;;;36.35;10.70;;;;;;;12.48;100.00;102003.59;5063807;28;20068;-56
2023/01/31 07:18:41;;;;;;;30.98;8.75;;;;;;;12.19;100.00;102009.66;5063187;28;20041;-50
2023/01/31 07:21:06;;;;;;;35.83;8.93;;;;;;;12.52;100.00;102014.78;5063275;28;20097;-51
2023/01/31 07:23:32;;;;;;;29.55;8.60;;;;;;;12.12;100.00;102004.16;5057753;28;20029;-54
2023/01/31 07:25:57;;;;;;;26.93;9.23;;;;;;;12.75;100.00;102001.34;5058974;28;20064;-53
2023/01/31 07:28:23;;;;;;;28.67;8.10;;;;;;;12.16;100.00;101992.06;5061362;28;20025;-51
2023/01/31 07:30:50;;;;;;;30.67;8.30;;;;;;;12.19;100.00;101997.06;5057573;28;20289;-52
2023/01/31 07:33:16;;;;;;;27.77;9.15;;;;;;;12.24;100.00;101999.22;5061007;28;20037;-49
2023/01/31 07:35:42;;;;;;;29.53;8.73;;;;;;;12.33;100.00;101991.97;5059746;28;20045;-51
2023/01/31 07:38:08;;;;;;;46.53;8.40;;;;;;;11.73;100.00;102023.75;5060812;28;20132;-56
2023/01/31 07:40:33;;;;;;;22.17;8.60;;;;;;;12.18;100.00;101986.53;5061994;28;20037;-52
2023/01/31 07:42:59;;;;;;;27.10;7.70;;;;;;;12.41;100.00;102009.84;5061645;28;20070;-50
2023/01/31 07:45:25;;;;;;;29.27;8.13;;;;;;;12.74;100.00;101998.84;5063733;28;20040;-48
2023/01/31 07:47:51;;;;;;;27.23;8.75;;;;;;;12.47;100.00;101990.34;5068710;28;20037;-52
2023/01/31 07:50:17;;;;;;;26.95;8.00;;;;;;;12.28;100.00;101989.00;5061312;28;20037;-53
2023/01/31 07:52:43;;;;;;;28.38;7.38;;;;;;;12.10;100.00;101998.16;5062137;28;20044;-51
2023/01/31 07:55:09;;;;;;;23.92;7.28;;;;;;;11.82;100.00;102003.13;5060227;28;20096;-56
2023/01/31 07:57:35;;;;;;;36.72;7.05;;;;;;;12.32;100.00;101984.94;5057789;28;20033;-52
2023/01/31 08:00:00;;;;;;;28.07;6.40;;;;;;;12.39;100.00;101988.56;5062324;28;20036;-50
2023/01/31 08:05:30;;;;;;;24.70;7.40;;;;;;;12.98;100.00;101989.75;5036398;28;20310;-51
2023/01/31 08:08:09;;;;;;;31.10;6.83;;;;;;;13.13;100.00;101980.84;5039658;28;20030;-50
2023/01/31 08:10:35;;;;;;;36.65;6.47;;;;;;;12.32;100.00;101977.69;5046464;28;20041;-54
2023/01/31 08:13:00;;;;;;;25.45;6.85;;;;;;;12.82;100.00;101989.88;5060779;28;20043;-57
2023/01/31 08:15:26;;;;;;;32.20;6.63;;;;;;;13.22;100.00;101979.75;5059896;28;20030;-48
2023/01/31 08:17:52;;;;;;;22.10;6.20;;;;;;;12.46;100.00;101970.75;5057567;28;20033;-53
2023/01/31 08:20:18;;;;;;;21.13;5.83;;;;;;;12.89;100.00;101977.38;5060993;28;20082;-55
2023/01/31 08:22:43;;;;;;;19.20;6.43;;;;;;;12.87;100.00;101972.22;5058441;28;20278;-53
2023/01/31 08:25:09;;;;;;;21.97;6.80;;;;;;;12.54;100.00;101977.88;5064127;28;20032;-50
2023/01/31 08:27:35;;;;;;;22.58;5.95;;;;;;;12.79;100.00;101974.97;5057438;28;20266;-51
2023/01/31 08:30:02;;;;;;;20.35;6.07;;;;;;;12.96;100.00;101958.72;5058722;28;20029;-53
2023/01/31 08:32:28;;;;;;;32.60;9.10;;;;;;;13.35;100.00;101957.59;5062500;28;20037;-50
2023/01/31 08:34:54;;;;;;;27.87;5.70;;;;;;;12.86;100.00;101942.88;5057984;28;20049;-51
2023/01/31 08:37:19;;;;;;;26.33;6.47;;;;;;;12.67;100.00;101942.38;5060986;28;20036;-52
2023/01/31 08:39:47;;;;;;;23.10;5.72;;;;;;;12.34;100.00;101939.97;5059166;28;20117;-53
2023/01/31 08:42:13;;;;;;;34.05;6.72;;;;;;;13.27;100.00;101923.63;5055914;28;20056;-52
2023/01/31 08:44:38;;;;;;;15.70;4.85;;;;;;;12.75;100.00;101930.72;5062188;28;20035;-52
2023/01/31 08:47:04;;;;;;;22.67;6.87;;;;;;;12.68;100.00;101933.31;5058118;28;20033;-53
2023/01/31 08:49:30;;;;;;;25.20;6.22;;;;;;;13.04;100.00;101919.19;5059346;28;20037;-54
2023/01/31 08:51:55;;;;;;;21.52;5.43;;;;;;;12.72;100.00;101923.88;5063062;28;20056;-53
2023/01/31 08:54:21;;;;;;;25.80;6.37;;;;;;;12.61;100.00;101941.28;5059800;28;20096;-49
2023/01/31 08:56:46;;;;;;;19.17;5.07;;;;;;;13.27;100.00;101928.97;5060730;28;20033;-50
2023/01/31 08:59:12;;;;;;;29.20;6.50;;;;;;;12.86;100.00;101924.06;5058703;28;20036;-53
2023/01/31 09:01:37;;;;;;;29.25;5.53;;;;;;;13.38;100.00;101914.25;5060142;28;20048;-56
2023/01/31 09:04:03;;;;;;;19.97;4.67;;;;;;;13.13;100.00;101927.13;5060556;28;20025;-52
2023/01/31 09:06:28;;;;;;;15.97;4.73;;;;;;;13.53;100.00;101916.94;5060237;28;20025;-53
2023/01/31 09:08:55;;;;;;;18.33;5.30;;;;;;;13.39;100.00;101926.66;5061347;28;20270;-54
2023/01/31 09:11:21;;;;;;;26.02;5.80;;;;;;;13.20;100.00;101946.88;5062912;28;20089;-52
2023/01/31 09:13:51;;;;;;;29.70;6.17;;;;;;;13.36;100.00;101937.78;5061201;28;20124;-54
2023/01/31 09:16:17;;;;;;;19.98;5.38;;;;;;;13.60;100.00;101944.69;5062226;28;20029;-54
2023/01/31 09:18:43;;;;;;;22.73;5.07;;;;;;;13.65;100.00;101948.72;5061040;28;20037;-51
2023/01/31 09:21:14;;;;;;;31.83;7.23;;;;;;;14.55;100.00;101937.59;5061104;28;20037;-53
2023/01/31 09:23:40;;;;;;;25.50;6.03;;;;;;;13.59;100.00;101931.47;5058648;28;20036;-55
2023/01/31 09:26:06;;;;;;;22.35;5.10;;;;;;;13.94;100.00;101933.50;5056727;28;20097;-54
2023/01/31 09:28:32;;;;;;;19.80;4.53;;;;;;;13.58;100.00;101935.19;5059701;28;20029;-52
2023/01/31 09:31:06;;;;;;;30.98;5.25;;;;;;;14.07;100.00;101930.97;5056749;28;20076;-55
2023/01/31 09:33:33;;;;;;;24.17;5.45;;;;;;;13.80;100.00;101938.72;5061315;28;20041;-55
2023/01/31 09:36:01;;;;;;;18.38;4.80;;;;;;;13.05;100.00;101918.16;5063307;28;20180;-56
2023/01/31 09:38:27;;;;;;;37.15;6.53;;;;;;;13.75;100.00;101939.31;5063028;28;20092;-49
2023/01/31 09:40:55;;;;;;;24.92;6.20;;;;;;;14.25;100.00;101933.19;5062037;28;20056;-54
2023/01/31 09:43:25;;;;;;;28.58;5.28;;;;;;;14.47;100.00;101928.59;5058777;28;20038;-53
2023/01/31 09:45:55;;;;;;;16.55;4.78;;;;;;;14.28;100.00;101929.25;5054868;28;20041;-52
2023/01/31 09:48:26;;;;;;;18.48;6.60;;;;;;;14.16;100.00;101937.88;5058311;28;20068;-51
2023/01/31 09:50:54;;;;;;;19.48;4.50;;;;;;;13.62;100.00;101931.94;5054918;28;20051;-52
2023/01/31 09:53:24;;;;;;;15.48;4.85;;;;;;;13.60;100.00;101917.00;5062439;28;20025;-50
2023/01/31 09:56:06;;;;;;;23.75;5.50;;;;;;;13.37;100.00;101917.94;5058774;28;20033;-56
2023/01/31 09:58:39;;;;;;;21.23;5.00;;;;;;;13.26;100.00;101926.47;5059664;28;20042;-53
2023/01/31 10:01:15;;;;;;;24.30;4.65;;;;;;;13.77;100.00;101926.53;5060055;28;20036;-54
2023/01/31 10:03:56;;;;;;;17.67;5.05;;;;;;;14.19;100.00;101937.47;5059252;28;20038;-54
2023/01/31 10:06:48;;;;;;;21.80;8.07;;;;;;;14.16;100.00;101937.03;5058850;28;20041;-52
2023/01/31 10:09:30;;;;;;;31.00;6.50;;;;;;;14.03;100.00;101933.19;5038663;28;20033;-52
2023/01/31 10:12:10;;;;;;;21.80;5.75;;;;;;;14.59;100.00;101941.53;5058069;28;20085;-50
2023/01/31 10:14:50;;;;;;;24.27;5.95;;;;;;;14.05;100.00;101941.06;5055983;28;20028;-51
2023/01/31 10:17:32;;;;;;;25.88;6.30;;;;;;;13.97;100.00;101938.50;5061607;28;20041;-52
2023/01/31 10:20:18;;;;;;;26.85;6.57;;;;;;;13.66;100.00;101936.94;5058874;28;20056;-51
2023/01/31 10:23:15;;;;;;;21.90;5.95;;;;;;;14.06;100.00;101913.13;5057826;28;20078;-54
2023/01/31 10:25:56;;;;;;;28.58;6.82;;;;;;;14.07;100.00;101922.03;5059822;28;20051;-53
2023/01/31 10:28:50;;;;;;;22.30;7.78;;;;;;;13.74;100.00;101902.72;5062959;28;20097;-53
2023/01/31 10:31:29;;;;;;;27.48;6.90;;;;;;;13.76;100.00;101913.25;5064787;28;20034;-52
2023/01/31 10:33:57;;;;;;;23.65;7.75;;;;;;;14.11;100.00;101929.56;5061697;28;20029;-50
2023/01/31 10:36:50;;;;;;;25.83;7.05;;;;;;;14.27;100.00;101916.84;5063696;28;20044;-50
2023/01/31 10:39:24;;;;;;;23.98;7.75;;;;;;;14.79;100.00;101914.78;5058381;28;20041;-54
2023/01/31 10:42:07;;;;;;;25.65;7.22;;;;;;;14.20;100.00;101906.03;5059833;28;20045;-50
2023/01/31 10:44:54;;;;;;;34.20;9.65;;;;;;;13.91;100.00;101903.28;5059099;28;20433;-53
2023/01/31 10:47:25;;;;;;;29.08;8.18;;;;;;;13.85;100.00;101920.19;5059218;28;20025;-50
2023/01/31 10:49:51;;;;;;;20.27;7.72;;;;;;;14.22;100.00;101908.53;5062206;28;20029;-50
2023/01/31 10:52:27;;;;;;;32.27;8.67;;;;;;;13.96;100.00;101899.19;5063984;28;20052;-55
2023/01/31 10:55:19;;;;;;;31.85;7.90;;;;;;;14.20;100.00;101885.34;5063960;28;20043;-48
2023/01/31 10:57:44;;;;;;;23.73;8.13;;;;;;;14.31;100.00;101889.34;5063137;28;20053;-52
2023/01/31 11:00:22;;;;;;;25.17;8.47;;;;;;;13.91;100.00;101880.94;5062270;28;20044;-53
2023/01/31 11:02:48;;;;;;;19.20;7.97;;;;;;;14.19;100.00;101891.75;5063732;28;20033;-54
2023/01/31 11:05:17;;;;;;;43.53;7.97;;;;;;;14.23;100.00;101896.72;5061730;28;20017;-52
2023/01/31 11:07:44;;;;;;;15.52;6.78;;;;;;;14.25;100.00;101883.91;5059764;28;20021;-55
2023/01/31 11:10:30;;;;;;;27.08;8.15;;;;;;;14.29;100.00;101886.03;5061885;28;20087;-52
2023/01/31 11:13:08;;;;;;;29.02;7.95;;;;;;;14.35;100.00;101876.34;5058228;28;20025;-55
2023/01/31 11:15:39;;;;;;;26.77;7.13;;;;;;;14.35;100.00;101884.44;5063439;28;20029;-53
2023/01/31 11:18:05;;;;;;;33.78;7.28;;;;;;;14.53;100.00;101870.47;5058044;28;20037;-52
2023/01/31 11:20:34;;;;;;;15.55;6.05;;;;;;;15.03;100.00;101867.69;5061677;28;20062;-53
2023/01/31 11:23:01;;;;;;;22.48;7.32;;;;;;;14.71;100.00;101874.56;5057415;28;20049;-51
2023/01/31 11:25:30;;;;;;;24.25;6.53;;;;;;;14.31;100.00;101902.00;5061115;28;20057;-54
2023/01/31 11:27:59;;;;;;;26.55;7.00;;;;;;;14.40;100.00;101873.06;5061588;28;20045;-50
2023/01/31 11:30:33;;;;;;;20.85;5.75;;;;;;;14.73;100.00;101867.94;5057990;28;20101;-50
2023/01/31 11:33:00;;;;;;;20.27;6.35;;;;;;;14.76;100.00;101878.34;5063050;28;20043;-53